createdAt,value
2022-09-18T00:00:17.402Z,1.30
2022-09-18T00:02:43.956Z,1.30
2022-09-18T00:05:10.509Z,1.50
2022-09-18T00:07:36.983Z,1.27
2022-09-18T00:10:03.713Z,1.20
2022-09-18T00:12:30.161Z,1.35
2022-09-18T00:14:56.619Z,1.60
2022-09-18T00:17:23.083Z,1.52
2022-09-18T00:19:50.334Z,1.45
2022-09-18T00:22:16.807Z,1.65
2022-09-18T00:24:43.260Z,1.40
2022-09-18T00:27:09.699Z,1.50
2022-09-18T00:29:36.197Z,1.45
2022-09-18T00:32:02.663Z,1.40
2022-09-18T00:34:29.214Z,1.20
2022-09-18T00:36:58.648Z,1.45
2022-09-18T00:39:25.221Z,1.30
2022-09-18T00:41:51.712Z,1.45
2022-09-18T00:44:33.299Z,1.35
2022-09-18T00:47:26.180Z,1.50
2022-09-18T00:50:16.634Z,1.58
2022-09-18T00:52:48.489Z,1.60
2022-09-18T00:55:16.047Z,1.40
2022-09-18T00:57:48.072Z,1.40
2022-09-18T01:00:15.129Z,1.40
2022-09-18T01:02:45.669Z,1.45
2022-09-18T01:05:14.838Z,1.40
2022-09-18T01:08:18.889Z,1.20
2022-09-18T01:10:55.609Z,1.33
2022-09-18T01:13:59.259Z,1.20
2022-09-18T01:16:33.023Z,1.17
2022-09-18T01:21:57.699Z,1.60
2022-09-18T01:24:47.508Z,1.40
2022-09-18T01:27:30.210Z,1.48
2022-09-18T01:30:09.437Z,1.60
2022-09-18T01:32:51.438Z,1.60
2022-09-18T01:35:40.462Z,1.80
2022-09-18T01:38:19.233Z,1.83
2022-09-18T01:41:06.277Z,1.50
2022-09-18T01:43:34.698Z,1.75
2022-09-18T01:46:07.255Z,1.60
2022-09-18T01:48:39.896Z,1.80
2022-09-18T01:51:17.106Z,1.42
2022-09-18T01:53:49.025Z,1.80
2022-09-18T01:56:50.065Z,1.80
2022-09-18T01:59:23.641Z,1.67
2022-09-18T02:02:05.016Z,2.00
2022-09-18T02:04:35.845Z,2.10
2022-09-18T02:07:21.081Z,1.63
2022-09-18T02:09:48.298Z,1.85
2022-09-18T02:12:18.898Z,2.10
2022-09-18T02:14:48.681Z,2.00
2022-09-18T02:17:58.496Z,1.85
2022-09-18T02:20:37.773Z,1.92
2022-09-18T02:23:06.609Z,1.63
2022-09-18T02:25:41.937Z,1.67
2022-09-18T02:28:10.047Z,1.90
2022-09-18T02:30:39.836Z,1.60
2022-09-18T02:33:33.154Z,1.80
2022-09-18T02:36:12.839Z,1.70
2022-09-18T02:38:53.361Z,1.95
2022-09-18T02:41:45.119Z,2.00
2022-09-18T02:44:25.245Z,1.90
2022-09-18T02:47:00.344Z,1.90
2022-09-18T02:49:39.624Z,1.80
2022-09-18T02:52:21.197Z,1.83
2022-09-18T02:54:58.085Z,2.00
2022-09-18T02:57:37.258Z,1.80
2022-09-18T03:00:08.379Z,1.70
2022-09-18T03:02:37.462Z,1.90
2022-09-18T03:05:05.375Z,1.70
2022-09-18T03:07:40.212Z,1.90
2022-09-18T03:10:07.346Z,2.00
2022-09-18T03:12:34.897Z,1.83
2022-09-18T03:15:04.446Z,1.80
2022-09-18T03:17:30.958Z,2.03
2022-09-18T03:19:57.437Z,2.00
2022-09-18T03:22:24.021Z,1.88
2022-09-18T03:24:50.527Z,2.22
2022-09-18T03:27:18.309Z,2.35
2022-09-18T03:29:45.474Z,2.42
2022-09-18T03:32:12.021Z,2.30
2022-09-18T03:34:45.366Z,2.10
2022-09-18T03:37:14.547Z,2.08
2022-09-18T03:39:41.091Z,2.08
2022-09-18T03:42:11.381Z,2.13
2022-09-18T03:44:38.110Z,1.88
2022-09-18T03:47:14.106Z,2.35
2022-09-18T03:49:40.589Z,2.03
2022-09-18T03:52:07.178Z,2.22
2022-09-18T03:54:41.195Z,2.20
2022-09-18T03:57:26.127Z,2.03
2022-09-18T04:00:14.341Z,2.00
2022-09-18T04:02:46.334Z,1.80
2022-09-18T04:05:51.495Z,1.77
2022-09-18T04:08:50.413Z,1.85
2022-09-18T04:11:26.389Z,2.00
2022-09-18T04:13:52.901Z,1.80
2022-09-18T04:16:19.475Z,1.80
2022-09-18T04:18:46.050Z,1.70
2022-09-18T04:21:12.515Z,1.80
2022-09-18T04:23:39.007Z,2.00
2022-09-18T04:26:09.463Z,1.75
2022-09-18T04:28:40.925Z,2.17
2022-09-18T04:31:09.453Z,1.92
2022-09-18T04:33:36.657Z,2.00
2022-09-18T04:36:07.038Z,1.83
2022-09-18T04:38:34.652Z,2.00
2022-09-18T04:41:01.325Z,1.90
2022-09-18T04:43:28.626Z,1.92
2022-09-18T04:45:55.575Z,2.00
2022-09-18T04:48:22.712Z,2.00
2022-09-18T04:50:50.595Z,2.22
2022-09-18T04:53:18.835Z,2.00
2022-09-18T04:55:47.426Z,2.10
2022-09-18T04:58:17.014Z,1.92
2022-09-18T05:00:45.184Z,2.10
2022-09-18T05:03:12.647Z,2.00
2022-09-18T05:05:41.109Z,2.38
2022-09-18T05:08:09.173Z,1.77
2022-09-18T05:10:35.705Z,1.90
2022-09-18T05:13:04.024Z,1.90
2022-09-18T05:15:31.154Z,2.00
2022-09-18T05:18:09.051Z,2.65
2022-09-18T05:20:37.958Z,1.80
2022-09-18T05:23:07.150Z,1.77
2022-09-18T05:25:35.705Z,2.00
2022-09-18T05:28:03.643Z,2.15
2022-09-18T05:30:41.914Z,2.05
2022-09-18T05:33:10.744Z,2.13
2022-09-18T05:35:39.975Z,2.10
2022-09-18T05:38:06.740Z,1.92
2022-09-18T05:40:36.351Z,2.10
2022-09-18T05:43:04.369Z,2.20
2022-09-18T05:45:33.427Z,2.03
2022-09-18T05:48:05.501Z,2.30
2022-09-18T05:50:34.735Z,2.13
2022-09-18T05:53:03.607Z,2.90
2022-09-18T05:55:38.979Z,2.58
2022-09-18T05:58:07.103Z,2.38
2022-09-18T06:00:35.471Z,2.50
2022-09-18T06:03:14.848Z,2.80
2022-09-18T06:05:41.949Z,2.60
2022-09-18T06:08:12.533Z,2.70
2022-09-18T06:10:40.456Z,3.40
2022-09-18T06:13:10.496Z,3.20
2022-09-18T06:15:46.425Z,3.30
2022-09-18T06:18:14.548Z,3.70
2022-09-18T06:20:42.616Z,3.30
2022-09-18T06:23:10.464Z,3.88
2022-09-18T06:26:01.862Z,3.35
2022-09-18T06:28:32.343Z,3.50
2022-09-18T06:31:02.129Z,3.60
2022-09-18T06:33:36.136Z,3.55
2022-09-18T06:36:08.193Z,3.30
2022-09-18T06:38:42.743Z,5.00
2022-09-18T06:41:09.519Z,4.78
2022-09-18T06:43:51.910Z,5.32
2022-09-18T06:46:30.163Z,6.10
2022-09-18T06:48:59.371Z,3.58
2022-09-18T06:51:25.826Z,3.40
2022-09-18T06:54:13.249Z,3.17
2022-09-18T06:56:41.493Z,3.47
2022-09-18T06:59:10.241Z,3.40
2022-09-18T07:01:37.428Z,2.90
2022-09-18T07:04:26.466Z,4.18
2022-09-18T07:06:53.054Z,3.05
2022-09-18T07:09:20.377Z,3.33
2022-09-18T07:12:04.941Z,3.10
2022-09-18T07:14:39.375Z,2.90
2022-09-18T07:17:14.191Z,3.10
2022-09-18T07:19:45.598Z,2.80
2022-09-18T07:22:13.843Z,2.92
2022-09-18T07:24:46.267Z,5.70
2022-09-18T07:27:13.290Z,4.35
2022-09-18T07:29:41.917Z,5.53
2022-09-18T07:32:09.739Z,4.70
2022-09-18T07:34:37.211Z,2.60
2022-09-18T07:37:03.956Z,2.97
2022-09-18T07:39:31.295Z,2.70
2022-09-18T07:42:33.157Z,3.22
2022-09-18T07:45:01.230Z,3.55
2022-09-18T07:47:29.850Z,3.60
2022-09-18T07:50:00.072Z,2.70
2022-09-18T07:52:26.706Z,2.70
2022-09-18T07:54:53.332Z,2.50
2022-09-18T07:57:28.334Z,2.65
2022-09-18T08:02:42.239Z,2.47
2022-09-18T08:05:12.484Z,2.40
2022-09-18T08:07:44.557Z,2.13
2022-09-18T08:10:28.514Z,2.10
2022-09-18T08:13:08.887Z,2.28
2022-09-18T08:16:06.367Z,2.60
2022-09-18T08:18:51.137Z,2.38
2022-09-18T08:21:40.365Z,2.50
2022-09-18T08:24:10.066Z,2.45
2022-09-18T08:26:38.624Z,2.22
2022-09-18T08:29:06.871Z,2.30
2022-09-18T08:31:35.342Z,2.67
2022-09-18T08:34:04.631Z,2.63
2022-09-18T08:36:31.616Z,2.65
2022-09-18T08:39:07.625Z,2.75
2022-09-18T08:41:51.298Z,2.28
2022-09-18T08:44:27.454Z,2.70
2022-09-18T08:47:03.719Z,2.40
2022-09-18T08:49:44.931Z,2.30
2022-09-18T08:52:15.362Z,2.50
2022-09-18T08:54:48.278Z,2.45
2022-09-18T08:57:35.718Z,2.55
2022-09-18T09:00:18.312Z,2.30
2022-09-18T09:03:00.636Z,2.33
2022-09-18T09:05:34.305Z,4.18
2022-09-18T09:10:55.436Z,3.47
2022-09-18T09:13:44.147Z,3.40
2022-09-18T09:16:39.893Z,2.20
2022-09-18T09:19:28.160Z,2.13
2022-09-18T09:22:07.880Z,2.03
2022-09-18T09:24:58.838Z,2.10
2022-09-18T09:27:33.099Z,2.10
2022-09-18T09:30:19.331Z,2.08
2022-09-18T09:33:16.347Z,2.50
2022-09-18T09:36:22.322Z,2.20
2022-09-18T09:39:13.352Z,2.15
2022-09-18T09:41:53.339Z,2.38
2022-09-18T09:44:24.091Z,2.70
2022-09-18T09:47:04.110Z,2.40
2022-09-18T09:49:47.931Z,2.25
2022-09-18T09:52:22.594Z,2.30
2022-09-18T09:54:55.334Z,2.00
2022-09-18T09:57:39.886Z,2.55
2022-09-18T10:00:15.095Z,2.00
2022-09-18T10:03:22.571Z,1.95
2022-09-18T10:06:21.889Z,4.17
2022-09-18T10:09:13.024Z,2.45
2022-09-18T10:11:43.138Z,2.40
2022-09-18T10:14:18.471Z,1.85
2022-09-18T10:16:48.773Z,2.70
2022-09-18T10:19:21.471Z,1.98
2022-09-18T10:21:53.066Z,2.00
2022-09-18T10:24:33.165Z,2.05
2022-09-18T10:27:10.427Z,2.10
2022-09-18T10:29:37.345Z,1.70
2022-09-18T10:32:07.914Z,1.70
2022-09-18T10:34:47.619Z,1.90
2022-09-18T10:37:29.993Z,1.90
2022-09-18T10:40:46.750Z,1.90
2022-09-18T10:43:20.314Z,1.60
2022-09-18T10:45:53.223Z,1.80
2022-09-18T10:48:45.933Z,2.05
2022-09-18T10:51:17.585Z,2.00
2022-09-18T10:54:01.543Z,1.90
2022-09-18T10:56:38.602Z,2.05
2022-09-18T10:59:27.014Z,1.90
2022-09-18T11:01:59.032Z,1.70
2022-09-18T11:04:27.497Z,1.67
2022-09-18T11:06:55.498Z,1.92
2022-09-18T11:09:36.984Z,1.63
2022-09-18T11:12:04.756Z,1.83
2022-09-18T11:14:50.494Z,1.50
2022-09-18T11:17:30.280Z,1.80
2022-09-18T11:19:59.356Z,1.48
2022-09-18T11:22:52.353Z,1.88
2022-09-18T11:25:31.345Z,2.10
2022-09-18T11:28:26.575Z,1.95
2022-09-18T11:31:04.162Z,1.98
2022-09-18T11:33:37.743Z,1.60
2022-09-18T11:36:08.139Z,1.50
2022-09-18T11:38:41.664Z,1.48
2022-09-18T11:41:11.027Z,1.50
2022-09-18T11:43:43.727Z,1.50
2022-09-18T11:46:46.079Z,1.10
2022-09-18T11:49:20.680Z,1.30
2022-09-18T11:51:58.118Z,1.40
2022-09-18T11:54:44.373Z,1.38
2022-09-18T11:57:22.775Z,2.28
2022-09-18T12:00:21.457Z,1.63
2022-09-18T12:03:11.355Z,2.20
2022-09-18T12:05:38.704Z,2.28
2022-09-18T12:08:30.418Z,1.63
2022-09-18T12:11:31.710Z,1.50
2022-09-18T12:14:08.671Z,1.50
2022-09-18T12:16:49.526Z,1.48
2022-09-18T12:19:21.645Z,1.30
2022-09-18T12:22:09.418Z,1.83
2022-09-18T12:24:35.966Z,1.33
2022-09-18T12:27:36.651Z,1.75
2022-09-18T12:30:09.991Z,1.45
2022-09-18T12:33:00.188Z,1.33
2022-09-18T12:35:54.605Z,1.55
2022-09-18T12:38:49.966Z,1.50
2022-09-18T12:41:31.678Z,1.45
2022-09-18T12:44:10.900Z,1.27
2022-09-18T12:46:49.342Z,1.50
2022-09-18T12:49:47.434Z,2.10
2022-09-18T12:52:55.200Z,5.68
2022-09-18T12:55:58.153Z,1.85
2022-09-18T12:59:05.939Z,2.17
2022-09-18T13:01:37.559Z,2.63
2022-09-18T13:04:20.534Z,3.60
2022-09-18T13:06:54.923Z,2.20
2022-09-18T13:09:28.393Z,2.40
2022-09-18T13:12:01.973Z,2.13
2022-09-18T13:17:13.690Z,1.80
2022-09-18T13:19:44.674Z,1.50
2022-09-18T13:22:15.932Z,1.60
2022-09-18T13:24:43.805Z,1.50
2022-09-18T13:27:13.860Z,1.65
2022-09-18T13:29:52.343Z,1.20
2022-09-18T13:32:33.994Z,1.50
2022-09-18T13:35:12.295Z,1.33
2022-09-18T13:37:39.764Z,2.58
2022-09-18T13:40:27.084Z,2.10
2022-09-18T13:42:54.086Z,1.75
2022-09-18T13:45:24.606Z,1.30
2022-09-18T13:48:20.058Z,1.10
2022-09-18T13:50:56.754Z,1.10
2022-09-18T13:53:33.022Z,1.70
2022-09-18T13:55:59.916Z,1.50
2022-09-18T13:58:33.510Z,1.20
2022-09-18T14:03:28.015Z,1.70
2022-09-18T14:05:55.126Z,1.50
2022-09-18T14:08:22.317Z,1.27
2022-09-18T14:11:05.377Z,2.00
2022-09-18T14:13:43.465Z,1.20
2022-09-18T14:16:30.346Z,1.70
2022-09-18T14:19:04.428Z,1.70
2022-09-18T14:21:38.266Z,1.90
2022-09-18T14:24:43.649Z,1.55
2022-09-18T14:27:41.227Z,1.77
2022-09-18T14:30:21.367Z,1.17
2022-09-18T14:33:19.394Z,1.30
2022-09-18T14:35:49.882Z,1.35
2022-09-18T14:38:31.572Z,1.63
2022-09-18T14:41:05.941Z,1.67
2022-09-18T14:43:32.556Z,1.60
2022-09-18T14:46:00.109Z,1.80
2022-09-18T14:48:29.910Z,1.48
2022-09-18T14:51:15.509Z,1.40
2022-09-18T14:53:44.364Z,1.60
2022-09-18T14:56:18.539Z,1.40
2022-09-18T14:58:47.853Z,1.30
2022-09-18T15:01:20.343Z,1.15
2022-09-18T15:03:50.309Z,1.27
2022-09-18T15:06:22.670Z,1.70
2022-09-18T15:08:53.005Z,1.40
2022-09-18T15:11:23.224Z,1.42
2022-09-18T15:13:52.326Z,1.70
2022-09-18T15:16:29.306Z,1.30
2022-09-18T15:18:57.430Z,1.50
2022-09-18T15:21:33.032Z,1.77
2022-09-18T15:24:02.863Z,1.70
2022-09-18T15:26:33.709Z,1.63
2022-09-18T15:29:02.308Z,1.30
2022-09-18T15:31:31.333Z,1.30
2022-09-18T15:34:15.481Z,1.40
2022-09-18T15:36:45.777Z,1.40
2022-09-18T15:39:28.287Z,1.88
2022-09-18T15:41:55.522Z,1.50
2022-09-18T15:45:05.066Z,2.00
2022-09-18T15:47:37.901Z,1.55
2022-09-18T15:50:13.558Z,1.45
2022-09-18T15:53:02.253Z,2.15
2022-09-18T15:55:52.201Z,2.10
2022-09-18T15:58:42.776Z,3.47
2022-09-18T16:01:19.405Z,2.85
2022-09-18T16:03:46.781Z,1.80
2022-09-18T16:06:26.869Z,1.60
2022-09-18T16:08:55.813Z,2.78
2022-09-18T16:11:52.161Z,2.90
2022-09-18T16:14:42.305Z,2.47
2022-09-18T16:17:33.794Z,2.40
2022-09-18T16:20:20.602Z,2.67
2022-09-18T16:22:48.395Z,1.83
2022-09-18T16:25:27.541Z,1.85
2022-09-18T16:27:56.489Z,1.90
2022-09-18T16:30:24.398Z,1.70
2022-09-18T16:33:15.187Z,1.83
2022-09-18T16:35:41.705Z,1.67
2022-09-18T16:38:09.381Z,1.90
2022-09-18T16:40:36.465Z,1.88
2022-09-18T16:43:03.054Z,1.75
2022-09-18T16:45:29.544Z,1.83
2022-09-18T16:48:00.465Z,1.60
2022-09-18T16:50:27.622Z,1.88
2022-09-18T16:52:54.852Z,1.83
2022-09-18T16:55:23.517Z,1.58
2022-09-18T16:57:52.214Z,1.42
2022-09-18T17:00:19.082Z,1.88
2022-09-18T17:02:45.641Z,2.08
2022-09-18T17:05:12.148Z,2.03
2022-09-18T17:07:40.489Z,2.15
2022-09-18T17:10:07.329Z,2.22
2022-09-18T17:12:33.796Z,2.25
2022-09-18T17:15:00.270Z,2.50
2022-09-18T17:17:26.773Z,2.50
2022-09-18T17:19:53.326Z,2.25
2022-09-18T17:22:22.578Z,2.47
2022-09-18T17:24:51.263Z,2.20
2022-09-18T17:27:18.980Z,2.40
2022-09-18T17:29:45.458Z,2.33
2022-09-18T17:32:12.501Z,3.00
2022-09-18T17:34:39.036Z,3.17
2022-09-18T17:37:05.555Z,3.20
2022-09-18T17:39:32.026Z,2.60
2022-09-18T17:41:59.483Z,2.53
2022-09-18T17:44:27.370Z,2.33
2022-09-18T17:46:54.210Z,2.45
2022-09-18T17:49:20.860Z,2.83
2022-09-18T17:51:47.913Z,2.72
2022-09-18T17:54:14.438Z,2.80
2022-09-18T17:56:40.978Z,2.72
2022-09-18T17:59:10.742Z,2.55
2022-09-18T18:01:40.573Z,2.60
2022-09-18T18:04:07.750Z,2.80
2022-09-18T18:06:36.862Z,2.50
2022-09-18T18:09:06.053Z,2.58
2022-09-18T18:11:33.499Z,2.90
2022-09-18T18:14:00.354Z,3.40
2022-09-18T18:16:30.534Z,6.28
2022-09-18T18:19:00.025Z,4.00
2022-09-18T18:21:27.464Z,2.90
2022-09-18T18:23:58.829Z,3.20
2022-09-18T18:26:27.901Z,3.13
2022-09-18T18:28:55.534Z,2.78
2022-09-18T18:31:25.374Z,3.45
2022-09-18T18:33:53.573Z,3.70
2022-09-18T18:36:28.769Z,3.28
2022-09-18T18:38:58.290Z,2.78
2022-09-18T18:41:26.378Z,3.75
2022-09-18T18:43:55.921Z,3.45
2022-09-18T18:46:24.247Z,3.30
2022-09-18T18:49:01.679Z,2.95
2022-09-18T18:51:34.560Z,2.90
2022-09-18T18:54:02.325Z,2.43
2022-09-18T18:56:30.891Z,2.40
2022-09-18T18:59:00.409Z,2.20
2022-09-18T19:01:28.062Z,2.33
2022-09-18T19:04:06.436Z,2.20
2022-09-18T19:06:36.228Z,2.08
2022-09-18T19:09:08.991Z,2.17
2022-09-18T19:11:42.829Z,2.07
2022-09-18T19:14:13.269Z,1.83
2022-09-18T19:16:40.340Z,1.90
2022-09-18T19:19:09.515Z,1.88
2022-09-18T19:21:37.892Z,1.77
2022-09-18T19:24:07.806Z,1.83
2022-09-18T19:26:35.022Z,1.73
2022-09-18T19:29:06.971Z,1.45
2022-09-18T19:31:35.378Z,1.50
2022-09-18T19:34:02.121Z,1.60
2022-09-18T19:36:30.097Z,1.52
2022-09-18T19:39:01.915Z,1.40
2022-09-18T19:41:38.962Z,1.50
2022-09-18T19:44:22.927Z,1.58
2022-09-18T19:49:19.516Z,1.45
2022-09-18T19:51:46.644Z,1.40
2022-09-18T19:54:13.432Z,1.60
2022-09-18T19:56:46.441Z,1.90
2022-09-18T19:59:13.691Z,1.60
2022-09-18T20:01:40.633Z,1.40
2022-09-18T20:04:07.307Z,1.75
2022-09-18T20:06:34.398Z,1.83
2022-09-18T20:09:01.093Z,1.60
2022-09-18T20:11:27.614Z,1.63
2022-09-18T20:13:54.259Z,1.40
2022-09-18T20:16:21.217Z,1.52
2022-09-18T20:18:48.496Z,1.50
2022-09-18T20:21:17.850Z,1.40
2022-09-18T20:23:45.285Z,1.77
2022-09-18T20:26:14.566Z,1.50
2022-09-18T20:28:41.295Z,1.70
2022-09-18T20:31:10.285Z,1.63
2022-09-18T20:33:37.962Z,1.50
2022-09-18T20:36:06.530Z,1.80
2022-09-18T20:38:35.762Z,1.35
2022-09-18T20:41:14.829Z,1.50
2022-09-18T20:43:42.737Z,1.40
2022-09-18T20:46:14.189Z,1.70
2022-09-18T20:48:41.883Z,1.40
2022-09-18T20:51:10.698Z,1.63
2022-09-18T20:53:41.745Z,1.40
2022-09-18T20:56:10.264Z,1.40
2022-09-18T20:58:39.125Z,1.42
2022-09-18T21:01:08.343Z,1.50
2022-09-18T21:03:35.763Z,1.42
2022-09-18T21:06:21.375Z,1.40
2022-09-18T21:08:49.675Z,1.70
2022-09-18T21:11:19.129Z,1.60
2022-09-18T21:13:49.134Z,1.48
2022-09-18T21:16:20.893Z,1.70
2022-09-18T21:18:48.829Z,1.60
2022-09-18T21:21:16.957Z,1.40
2022-09-18T21:24:02.161Z,1.50
2022-09-18T21:26:33.004Z,1.48
2022-09-18T21:29:10.703Z,1.65
2022-09-18T21:31:42.441Z,1.55
2022-09-18T21:34:11.444Z,1.55
2022-09-18T21:36:43.303Z,1.70
2022-09-18T21:39:14.421Z,1.70
2022-09-18T21:41:46.150Z,1.50
2022-09-18T21:44:15.704Z,1.50
2022-09-18T21:46:43.191Z,1.52
2022-09-18T21:49:10.047Z,1.60
2022-09-18T21:51:41.647Z,1.33
2022-09-18T21:54:14.617Z,1.60
2022-09-18T21:56:41.751Z,1.50
2022-09-18T21:59:10.026Z,1.50
2022-09-18T22:01:38.178Z,1.60
2022-09-18T22:04:07.268Z,1.60
2022-09-18T22:06:36.477Z,1.40
2022-09-18T22:09:08.209Z,1.25
2022-09-18T22:11:36.914Z,1.38
2022-09-18T22:14:06.477Z,1.35
2022-09-18T22:16:33.874Z,1.52
2022-09-18T22:19:00.502Z,1.48
2022-09-18T22:21:29.854Z,1.50
2022-09-18T22:23:59.722Z,1.33
2022-09-18T22:26:27.389Z,1.40
2022-09-18T22:28:56.504Z,1.45
2022-09-18T22:31:24.547Z,1.63
2022-09-18T22:33:57.724Z,1.25
2022-09-18T22:36:25.410Z,1.60
2022-09-18T22:38:52.965Z,1.80
2022-09-18T22:41:19.951Z,1.90
2022-09-18T22:43:47.769Z,2.00
2022-09-18T22:46:16.543Z,2.20
2022-09-18T22:48:44.050Z,2.10
2022-09-18T22:51:13.342Z,2.38
2022-09-18T22:53:45.294Z,2.30
2022-09-18T22:56:13.779Z,2.10
2022-09-18T22:58:41.444Z,2.42
2022-09-18T23:01:09.300Z,2.30
2022-09-18T23:03:36.867Z,2.50
2022-09-18T23:06:04.783Z,2.30
2022-09-18T23:08:31.834Z,2.45
2022-09-18T23:11:07.738Z,2.35
2022-09-18T23:13:42.591Z,2.60
2022-09-18T23:16:12.983Z,2.20
2022-09-18T23:18:40.201Z,2.35
2022-09-18T23:21:08.863Z,2.03
2022-09-18T23:23:37.145Z,2.20
2022-09-18T23:26:09.617Z,2.28
2022-09-18T23:28:39.406Z,2.10
2022-09-18T23:31:10.280Z,1.80
2022-09-18T23:33:38.544Z,2.20
2022-09-18T23:36:16.477Z,2.30
2022-09-18T23:38:43.910Z,2.13
2022-09-18T23:41:12.442Z,2.05
2022-09-18T23:43:40.460Z,2.40
2022-09-18T23:46:08.902Z,2.40
2022-09-18T23:48:35.636Z,2.30
2022-09-18T23:51:03.240Z,2.50
2022-09-18T23:53:36.230Z,2.70
2022-09-18T23:56:09.935Z,2.30
2022-09-18T23:58:37.371Z,2.47
